Time;durP1;ratioP1;P1;durP2;ratioP2;P2;SDS_P1;SDS_P2;PMS_P1;PMS_P2;Temp;Humidity;BMP_temperature;BMP_pressure;BME280_temperature;BME280_humidity;BME280_pressure;Samples;Min_cycle;Max_cycle;Signal;HPM_P1;HPM_P2
2022/10/08 00:00:00;;;;;;;10.97;9.97;;;16.90;97.30;;;;;;5075714;28;20404;-44
2022/10/08 00:02:27;;;;;;;12.33;10.37;;;16.90;97.40;;;;;;5077904;28;20514;-45
2022/10/08 00:04:53;;;;;;;10.60;9.70;;;16.90;97.40;;;;;;5077672;28;20180;-44
2022/10/08 00:07:18;;;;;;;10.87;9.90;;;16.80;97.30;;;;;;5077573;28;20502;-46
2022/10/08 00:09:44;;;;;;;10.87;9.77;;;16.80;97.30;;;;;;5078036;28;20243;-43
2022/10/08 00:12:09;;;;;;;11.17;8.90;;;16.80;97.30;;;;;;5078129;28;20405;-44
2022/10/08 00:14:35;;;;;;;10.73;9.73;;;16.70;97.20;;;;;;5077860;28;20261;-45
2022/10/08 00:17:00;;;;;;;11.33;10.27;;;16.70;97.20;;;;;;5078768;28;20572;-44
2022/10/08 00:19:26;;;;;;;11.37;10.33;;;16.70;97.20;;;;;;5078638;28;20174;-45
2022/10/08 00:21:55;;;;;;;10.23;9.33;;;16.60;97.20;;;;;;5078193;28;20195;-44
2022/10/08 00:24:22;;;;;;;9.97;9.07;;;16.60;97.20;;;;;;5077628;28;20180;-44
2022/10/08 00:26:49;;;;;;;9.97;8.97;;;16.60;97.20;;;;;;5077763;28;20432;-47
2022/10/08 00:29:18;;;;;;;11.30;9.60;;;16.60;97.20;;;;;;5077651;28;20425;-43
2022/10/08 00:31:45;;;;;;;10.07;9.27;;;16.50;97.20;;;;;;5075771;28;20512;-48
2022/10/08 00:34:15;;;;;;;9.67;8.83;;;16.50;97.20;;;;;;5075766;28;20756;-46
2022/10/08 00:36:41;;;;;;;12.00;10.00;;;16.50;97.20;;;;;;5076676;28;20477;-46
2022/10/08 00:39:12;;;;;;;10.67;9.57;;;16.50;97.30;;;;;;5075980;28;20409;-44
2022/10/08 00:41:38;;;;;;;10.73;9.73;;;16.40;97.40;;;;;;5075049;28;20419;-47
2022/10/08 00:44:41;;;;;;;9.70;8.83;;;16.40;97.50;;;;;;5077759;28;20499;-44
2022/10/08 00:47:34;;;;;;;9.90;8.90;;;16.40;97.70;;;;;;5077471;28;20796;-47
2022/10/08 00:50:22;;;;;;;13.53;9.67;;;16.40;97.80;;;;;;5077131;28;20461;-46
2022/10/08 00:52:53;;;;;;;10.50;9.57;;;16.40;97.90;;;;;;5070256;28;20520;-47
2022/10/08 00:55:21;;;;;;;10.43;9.33;;;16.40;98.00;;;;;;5075587;28;20822;-47
2022/10/08 00:57:47;;;;;;;10.70;9.60;;;16.40;98.10;;;;;;5075235;28;20784;-43
2022/10/08 01:00:16;;;;;;;10.10;9.20;;;16.40;98.20;;;;;;5075193;28;20447;-46
2022/10/08 01:02:42;;;;;;;9.43;8.40;;;16.40;98.20;;;;;;5075034;28;20420;-48
2022/10/08 01:05:09;;;;;;;10.70;9.63;;;16.40;98.50;;;;;;5074168;28;20887;-45
2022/10/08 01:07:44;;;;;;;9.23;8.33;;;16.40;98.20;;;;;;5074829;28;21051;-43
2022/10/08 01:10:31;;;;;;;10.23;9.33;;;16.40;98.30;;;;;;5074410;28;20414;-45
2022/10/08 01:13:12;;;;;;;10.03;9.13;;;16.40;98.20;;;;;;5075248;28;20500;-44
2022/10/08 01:15:59;;;;;;;10.47;9.47;;;16.40;98.30;;;;;;5076218;28;20435;-43
2022/10/08 01:18:30;;;;;;;11.77;9.10;;;16.40;98.30;;;;;;5076199;28;20424;-47
2022/10/08 01:21:36;;;;;;;10.30;9.40;;;16.40;98.30;;;;;;5076033;28;20449;-46
2022/10/08 01:24:04;;;;;;;10.50;9.60;;;16.40;98.30;;;;;;5064862;28;20422;-44
2022/10/08 01:26:56;;;;;;;10.73;9.63;;;16.40;98.40;;;;;;5075484;28;20417;-48
2022/10/08 01:29:42;;;;;;;10.37;9.40;;;16.40;98.40;;;;;;5075736;28;20539;-48
2022/10/08 01:32:16;;;;;;;9.63;8.70;;;16.40;98.40;;;;;;5076286;28;20476;-45
2022/10/08 01:35:05;;;;;;;10.20;9.10;;;16.40;98.40;;;;;;5076472;28;20485;-43
2022/10/08 01:37:37;;;;;;;9.93;9.13;;;16.40;98.50;;;;;;5076118;28;20814;-43
2022/10/08 01:40:08;;;;;;;10.73;9.80;;;16.40;98.50;;;;;;5075317;28;20435;-45
2022/10/08 01:42:35;;;;;;;11.90;10.57;;;16.40;98.60;;;;;;5074449;28;20421;-45
2022/10/08 01:45:06;;;;;;;11.57;10.40;;;16.40;98.70;;;;;;5075269;28;20445;-46
2022/10/08 01:47:32;;;;;;;10.20;9.30;;;16.40;98.70;;;;;;5075325;28;20461;-45
2022/10/08 01:50:06;;;;;;;9.37;8.57;;;16.40;98.80;;;;;;5073958;28;20437;-46
2022/10/08 01:52:37;;;;;;;10.33;9.40;;;16.40;98.80;;;;;;5074166;28;20886;-46
2022/10/08 01:55:07;;;;;;;9.73;8.87;;;16.40;98.80;;;;;;5074270;28;20460;-43
2022/10/08 01:57:33;;;;;;;9.63;8.77;;;16.40;98.80;;;;;;5074366;28;20481;-44
2022/10/08 02:00:07;;;;;;;10.57;9.47;;;16.40;98.70;;;;;;5075862;28;20531;-45
2022/10/08 02:02:32;;;;;;;10.57;9.57;;;16.40;98.70;;;;;;5075894;28;20512;-44
2022/10/08 02:04:58;;;;;;;10.10;9.30;;;16.40;98.70;;;;;;5075847;28;20412;-45
2022/10/08 02:07:30;;;;;;;9.87;8.87;;;16.40;98.70;;;;;;5075026;28;20335;-45
2022/10/08 02:10:17;;;;;;;9.93;9.10;;;16.40;98.70;;;;;;5075341;28;20248;-46
2022/10/08 02:12:43;;;;;;;10.03;8.93;;;16.40;98.60;;;;;;5075187;28;20745;-45
2022/10/08 02:15:19;;;;;;;10.00;9.00;;;16.40;98.60;;;;;;5073837;28;20505;-45
2022/10/08 02:17:53;;;;;;;9.93;9.03;;;16.40;98.60;;;;;;5072824;28;20428;-45
2022/10/08 02:20:28;;;;;;;10.10;9.20;;;16.40;98.60;;;;;;5073579;28;20402;-46
2022/10/08 02:23:13;;;;;;;9.50;8.67;;;16.40;98.60;;;;;;5072727;28;20430;-46
2022/10/08 02:25:56;;;;;;;9.50;8.60;;;16.40;98.50;;;;;;5072955;28;20582;-44
2022/10/08 02:28:32;;;;;;;9.57;8.67;;;16.40;98.60;;;;;;5074399;28;20411;-44
2022/10/08 02:31:07;;;;;;;9.87;9.07;;;16.40;98.50;;;;;;5076205;28;20754;-45
2022/10/08 02:34:03;;;;;;;9.90;8.93;;;16.40;98.90;;;;;;5074877;28;20461;-43
2022/10/08 02:36:34;;;;;;;9.57;8.67;;;16.40;98.50;;;;;;5072951;28;20701;-46
2022/10/08 02:39:04;;;;;;;8.90;8.10;;;16.40;98.50;;;;;;5071996;28;20441;-44
2022/10/08 02:41:34;;;;;;;9.80;8.80;;;16.40;98.60;;;;;;5073506;28;20625;-44
2022/10/08 02:44:05;;;;;;;9.63;8.73;;;16.30;98.60;;;;;;5072314;28;20421;-45
2022/10/08 02:46:34;;;;;;;10.93;8.47;;;16.40;98.60;;;;;;5071902;28;20517;-44
2022/10/08 02:49:07;;;;;;;10.60;8.43;;;16.30;98.60;;;;;;5073650;28;20426;-45
2022/10/08 02:51:39;;;;;;;8.90;8.17;;;16.30;98.60;;;;;;5073818;28;20409;-47
2022/10/08 02:54:06;;;;;;;10.40;9.50;;;16.30;98.70;;;;;;5075653;28;20424;-47
2022/10/08 02:56:55;;;;;;;8.47;7.77;;;16.30;98.60;;;;;;5091944;28;20487;-43
2022/10/08 02:59:21;;;;;;;10.73;8.80;;;16.30;98.70;;;;;;5075445;28;20429;-44
2022/10/08 03:02:04;;;;;;;9.27;8.47;;;16.30;98.70;;;;;;5075466;28;20541;-45
2022/10/08 03:04:40;;;;;;;10.47;8.83;;;16.30;98.80;;;;;;5075588;28;20747;-44
2022/10/08 03:07:06;;;;;;;9.03;8.23;;;16.20;98.80;;;;;;5075534;28;20421;-45
2022/10/08 03:09:35;;;;;;;10.30;9.40;;;16.20;98.80;;;;;;5074890;28;20505;-45
2022/10/08 03:12:01;;;;;;;8.73;7.87;;;16.20;98.80;;;;;;5073742;28;20475;-44
2022/10/08 03:14:28;;;;;;;8.97;8.17;;;16.20;98.80;;;;;;5074422;28;20706;-44
2022/10/08 03:16:53;;;;;;;9.20;7.87;;;16.20;98.80;;;;;;5074671;28;20440;-45
2022/10/08 03:19:19;;;;;;;8.37;7.67;;;16.20;98.70;;;;;;5076199;28;20414;-48
2022/10/08 03:21:47;;;;;;;10.20;7.60;;;16.20;98.70;;;;;;5074563;28;20187;-44
2022/10/08 03:24:14;;;;;;;10.97;8.10;;;16.10;98.70;;;;;;5079183;28;20679;-44
2022/10/08 03:26:40;;;;;;;10.43;7.87;;;16.10;98.70;;;;;;5078052;28;20534;-43
2022/10/08 03:29:06;;;;;;;10.03;7.60;;;16.10;98.70;;;;;;5079971;28;20430;-43
2022/10/08 03:31:32;;;;;;;9.90;9.00;;;16.10;98.70;;;;;;5078177;28;20788;-45
2022/10/08 03:33:57;;;;;;;7.53;6.87;;;16.10;98.70;;;;;;5078674;28;20485;-45
2022/10/08 03:36:24;;;;;;;9.10;7.70;;;16.10;98.70;;;;;;5078398;28;20497;-45
2022/10/08 03:38:50;;;;;;;9.93;7.97;;;16.10;98.70;;;;;;5077669;28;20600;-46
2022/10/08 03:41:16;;;;;;;8.10;7.40;;;16.10;98.80;;;;;;5079459;28;20429;-47
2022/10/08 03:43:41;;;;;;;9.83;7.73;;;16.00;98.70;;;;;;5078388;28;20180;-45
2022/10/08 03:46:09;;;;;;;7.90;7.20;;;16.00;98.70;;;;;;5078012;28;20461;-48
2022/10/08 03:48:35;;;;;;;8.53;7.73;;;16.00;98.70;;;;;;5077987;28;20184;-44
2022/10/08 03:51:09;;;;;;;9.03;7.57;;;16.00;98.70;;;;;;5080276;28;20427;-43
2022/10/08 03:53:36;;;;;;;7.37;6.63;;;16.00;98.70;;;;;;5079805;28;20282;-46
2022/10/08 03:56:03;;;;;;;8.27;7.47;;;16.00;98.70;;;;;;5079787;28;20760;-44
2022/10/08 03:58:29;;;;;;;7.87;7.07;;;16.00;98.70;;;;;;5079573;28;20435;-44
2022/10/08 04:01:02;;;;;;;8.90;7.53;;;15.90;98.60;;;;;;5079036;28;20417;-44
2022/10/08 04:03:28;;;;;;;10.47;8.10;;;15.90;98.70;;;;;;5094138;28;20462;-47
2022/10/08 04:05:54;;;;;;;8.37;7.67;;;15.90;98.70;;;;;;5077459;28;20479;-47
2022/10/08 04:08:19;;;;;;;8.43;7.73;;;15.90;98.70;;;;;;5077322;28;20494;-50
2022/10/08 04:10:45;;;;;;;8.50;7.70;;;15.90;98.70;;;;;;5076999;28;20633;-45
2022/10/08 04:13:10;;;;;;;9.10;7.37;;;15.80;98.70;;;;;;5076670;28;20612;-48
2022/10/08 04:15:36;;;;;;;8.23;6.87;;;15.80;98.80;;;;;;5076422;28;20180;-47
2022/10/08 04:18:02;;;;;;;8.53;7.70;;;15.80;98.80;;;;;;5076938;28;20460;-45
2022/10/08 04:20:27;;;;;;;9.33;7.33;;;15.80;99.10;;;;;;5076785;28;20182;-45
2022/10/08 04:22:53;;;;;;;8.87;7.97;;;15.80;98.80;;;;;;5077471;28;20196;-46
2022/10/08 04:25:19;;;;;;;10.57;9.57;;;15.80;98.80;;;;;;5077398;28;20202;-49
2022/10/08 04:27:48;;;;;;;9.03;8.13;;;15.70;98.80;;;;;;5077476;28;20196;-47
2022/10/08 04:30:14;;;;;;;9.60;8.70;;;15.70;98.80;;;;;;5076947;28;20189;-44
2022/10/08 04:32:40;;;;;;;9.93;8.90;;;15.70;98.90;;;;;;5076093;28;20902;-45
2022/10/08 04:35:06;;;;;;;10.10;9.10;;;15.70;98.90;;;;;;5076696;28;20757;-43
2022/10/08 04:37:32;;;;;;;9.67;8.77;;;15.70;99.00;;;;;;5078055;28;20186;-45
2022/10/08 04:39:57;;;;;;;11.73;9.80;;;15.70;99.00;;;;;;5077282;28;20484;-47
2022/10/08 04:42:23;;;;;;;9.67;8.70;;;15.70;99.00;;;;;;5075925;28;20182;-45
2022/10/08 04:44:48;;;;;;;10.30;9.30;;;15.70;99.00;;;;;;5076047;28;20605;-46
2022/10/08 04:47:14;;;;;;;11.27;9.40;;;15.70;99.00;;;;;;5077101;28;20561;-44
2022/10/08 04:49:39;;;;;;;9.63;8.73;;;15.70;99.10;;;;;;5075191;28;20186;-43
2022/10/08 04:52:05;;;;;;;8.77;7.97;;;15.70;99.10;;;;;;5074766;28;20208;-44
2022/10/08 04:54:33;;;;;;;8.87;7.97;;;15.70;99.10;;;;;;5075578;28;20275;-49
2022/10/08 04:56:58;;;;;;;9.73;8.80;;;15.70;99.20;;;;;;5075697;28;20483;-45
2022/10/08 04:59:24;;;;;;;11.00;8.90;;;15.70;99.20;;;;;;5076539;28;20714;-46
2022/10/08 05:01:51;;;;;;;10.63;8.70;;;15.70;99.30;;;;;;5091993;28;20432;-46
2022/10/08 05:04:17;;;;;;;8.27;7.30;;;15.70;99.20;;;;;;5074276;28;20180;-45
2022/10/08 05:06:42;;;;;;;8.97;8.07;;;15.70;99.30;;;;;;5075625;28;20421;-45
2022/10/08 05:09:08;;;;;;;9.03;7.80;;;15.70;99.20;;;;;;5075984;28;20186;-44
2022/10/08 05:11:33;;;;;;;9.17;8.27;;;15.70;99.20;;;;;;5075177;28;20336;-47
2022/10/08 05:13:59;;;;;;;8.90;8.00;;;15.60;99.10;;;;;;5074525;28;20215;-47
2022/10/08 05:16:26;;;;;;;8.97;8.07;;;15.60;99.30;;;;;;5074571;28;20178;-45
2022/10/08 05:18:51;;;;;;;9.87;8.90;;;15.50;99.40;;;;;;5074289;28;20502;-47
2022/10/08 05:21:20;;;;;;;9.57;8.57;;;15.50;99.60;;;;;;5074569;28;20887;-43
2022/10/08 05:23:46;;;;;;;9.87;8.90;;;15.40;99.70;;;;;;5075053;28;20183;-42
2022/10/08 05:26:13;;;;;;;10.00;9.00;;;15.40;99.80;;;;;;5074199;28;20518;-45
2022/10/08 05:28:38;;;;;;;9.67;8.77;;;15.40;99.90;;;;;;5075350;28;20526;-45
2022/10/08 05:31:04;;;;;;;9.30;8.40;;;15.30;99.90;;;;;;5076260;28;20509;-47
2022/10/08 05:33:30;;;;;;;9.80;8.80;;;15.30;99.90;;;;;;5074911;28;20227;-49
2022/10/08 05:35:55;;;;;;;10.10;9.03;;;15.30;99.90;;;;;;5075023;28;20177;-44
2022/10/08 05:38:21;;;;;;;8.50;7.80;;;15.30;99.90;;;;;;5090048;28;20224;-45
2022/10/08 05:40:47;;;;;;;9.20;8.40;;;15.30;99.90;;;;;;5055795;28;20578;-45
2022/10/08 05:43:12;;;;;;;9.20;8.40;;;15.20;99.80;;;;;;5073369;28;20475;-47
2022/10/08 05:45:38;;;;;;;9.40;8.33;;;15.30;99.80;;;;;;5088443;28;20234;-45
2022/10/08 05:48:03;;;;;;;9.40;8.00;;;15.20;99.80;;;;;;5072401;28;20198;-46
2022/10/08 05:50:29;;;;;;;11.37;9.87;;;15.20;99.70;;;;;;5072518;28;20243;-45
2022/10/08 05:52:55;;;;;;;10.07;9.03;;;15.20;99.70;;;;;;5074214;28;20207;-48
2022/10/08 05:55:20;;;;;;;9.50;8.63;;;15.20;99.70;;;;;;5090718;28;20179;-44
2022/10/08 05:57:46;;;;;;;10.30;7.80;;;15.20;99.70;;;;;;5074582;28;20333;-48
2022/10/08 06:00:13;;;;;;;9.03;8.30;;;15.20;99.60;;;;;;5089792;28;20190;-46
2022/10/08 06:02:38;;;;;;;9.60;7.90;;;15.30;99.60;;;;;;5072715;28;20190;-44
2022/10/08 06:05:04;;;;;;;7.83;7.13;;;15.30;99.50;;;;;;5072307;28;20509;-45
2022/10/08 06:07:30;;;;;;;9.03;8.13;;;15.30;99.40;;;;;;5072484;28;20269;-49
2022/10/08 06:09:57;;;;;;;9.00;8.10;;;15.30;99.40;;;;;;5055017;28;20791;-46
2022/10/08 06:12:23;;;;;;;8.90;7.10;;;15.30;99.30;;;;;;5072572;28;20344;-45
2022/10/08 06:14:48;;;;;;;9.30;8.40;;;15.40;99.40;;;;;;5089563;28;20413;-46
2022/10/08 06:17:14;;;;;;;11.00;8.50;;;15.40;99.30;;;;;;5073372;28;20179;-43
2022/10/08 06:19:39;;;;;;;8.70;7.83;;;15.40;99.20;;;;;;5074136;28;20535;-46
2022/10/08 06:22:05;;;;;;;9.97;8.97;;;15.50;99.20;;;;;;5084032;28;20589;-45
2022/10/08 06:24:31;;;;;;;8.77;7.97;;;15.60;99.20;;;;;;5086570;28;20565;-44
2022/10/08 06:27:00;;;;;;;8.97;8.17;;;15.60;99.10;;;;;;5094051;28;20185;-45
2022/10/08 06:29:25;;;;;;;8.90;8.10;;;15.70;99.00;;;;;;5095590;28;20449;-45
2022/10/08 06:31:52;;;;;;;10.17;8.17;;;15.70;98.80;;;;;;5094962;28;20514;-44
2022/10/08 06:34:18;;;;;;;10.63;8.10;;;15.80;98.70;;;;;;5095522;28;20177;-43
2022/10/08 06:36:43;;;;;;;8.93;8.13;;;15.90;98.60;;;;;;5096503;28;20444;-46
2022/10/08 06:39:12;;;;;;;9.63;8.17;;;16.00;98.40;;;;;;5076842;28;20887;-51
2022/10/08 06:41:37;;;;;;;9.17;8.37;;;16.10;98.30;;;;;;5094569;28;20329;-47
2022/10/08 06:44:09;;;;;;;9.03;8.20;;;16.20;98.30;;;;;;5093839;28;20531;-45
2022/10/08 06:46:34;;;;;;;8.07;7.47;;;16.40;98.10;;;;;;5094410;28;20203;-45
2022/10/08 06:49:01;;;;;;;8.33;7.17;;;16.60;97.90;;;;;;5093229;28;20466;-46
2022/10/08 06:51:27;;;;;;;8.03;7.43;;;16.80;97.60;;;;;;5091337;28;20187;-47
2022/10/08 06:53:54;;;;;;;8.10;7.30;;;17.10;97.30;;;;;;5091394;28;20588;-45
2022/10/08 06:56:20;;;;;;;11.20;7.30;;;17.50;96.80;;;;;;5089419;28;20895;-45
2022/10/08 06:58:46;;;;;;;7.63;6.67;;;17.80;96.20;;;;;;5094926;28;20408;-45
2022/10/08 07:01:20;;;;;;;9.07;6.90;;;18.30;95.60;;;;;;5095241;28;20831;-43
2022/10/08 07:03:53;;;;;;;13.30;6.17;;;18.70;94.70;;;;;;5094710;28;20427;-45
2022/10/08 07:06:20;;;;;;;7.10;6.40;;;19.00;93.90;;;;;;5094497;28;20721;-44
2022/10/08 07:08:45;;;;;;;11.33;6.40;;;19.10;93.50;;;;;;5094399;28;20631;-48
2022/10/08 07:11:16;;;;;;;9.10;6.47;;;19.20;93.10;;;;;;5094643;28;20515;-45
2022/10/08 07:13:42;;;;;;;7.10;5.73;;;19.30;92.70;;;;;;5095454;28;20587;-44
2022/10/08 07:16:19;;;;;;;8.83;5.80;;;19.60;92.40;;;;;;5096485;28;20413;-47
2022/10/08 07:18:46;;;;;;;5.57;4.80;;;19.70;91.80;;;;;;5096042;28;20416;-46
2022/10/08 07:21:13;;;;;;;9.10;6.47;;;19.80;91.50;;;;;;5097815;28;20505;-47
2022/10/08 07:23:39;;;;;;;6.30;4.47;;;20.00;91.00;;;;;;5098017;28;20423;-46
2022/10/08 07:26:08;;;;;;;6.60;5.20;;;20.10;90.90;;;;;;5097702;28;20483;-45
2022/10/08 07:28:36;;;;;;;7.47;5.80;;;20.30;90.20;;;;;;5096924;28;20210;-44
2022/10/08 07:31:10;;;;;;;5.67;4.57;;;20.50;89.50;;;;;;5095169;28;20703;-44
2022/10/08 07:33:36;;;;;;;5.93;4.40;;;20.90;87.90;;;;;;5094586;28;20495;-45
2022/10/08 07:36:06;;;;;;;7.53;5.43;;;21.00;85.80;;;;;;5095142;28;20417;-44
2022/10/08 07:38:32;;;;;;;7.40;4.17;;;21.20;85.10;;;;;;5094762;28;20447;-44
2022/10/08 07:40:57;;;;;;;8.30;4.57;;;21.30;84.70;;;;;;5094985;28;20722;-44
2022/10/08 07:43:23;;;;;;;4.57;4.10;;;21.80;83.40;;;;;;5094667;28;20187;-46
2022/10/08 07:45:49;;;;;;;6.97;4.33;;;22.50;82.60;;;;;;5096068;28;20526;-43
2022/10/08 07:48:17;;;;;;;6.60;5.13;;;23.30;79.30;;;;;;5097390;28;20568;-47
2022/10/08 07:50:43;;;;;;;4.40;3.70;;;24.30;76.30;;;;;;5097552;28;20490;-45
2022/10/08 07:53:09;;;;;;;6.60;4.00;;;25.50;71.50;;;;;;5093400;28;20478;-44
2022/10/08 07:55:35;;;;;;;5.37;4.43;;;26.30;65.40;;;;;;5082301;28;20862;-44
2022/10/08 07:58:00;;;;;;;6.10;4.50;;;27.00;60.30;;;;;;5092109;28;20170;-47
2022/10/08 08:00:26;;;;;;;6.70;4.47;;;27.20;57.90;;;;;;5092939;28;20262;-46
2022/10/08 08:02:51;;;;;;;7.60;4.43;;;27.50;56.90;;;;;;5094329;28;20176;-44
2022/10/08 08:05:17;;;;;;;5.40;4.00;;;27.60;56.00;;;;;;5093944;28;20201;-47
2022/10/08 08:07:43;;;;;;;6.10;5.20;;;27.60;54.00;;;;;;5094231;28;20458;-45
2022/10/08 08:10:08;;;;;;;6.30;4.40;;;27.10;53.90;;;;;;5092863;28;20181;-44
2022/10/08 08:12:34;;;;;;;6.03;4.23;;;26.60;54.30;;;;;;5096310;28;20300;-44
2022/10/08 08:14:59;;;;;;;6.10;4.30;;;26.20;55.20;;;;;;5095559;28;20200;-43
2022/10/08 08:17:25;;;;;;;6.23;4.20;;;26.10;55.60;;;;;;5095840;28;20169;-45
2022/10/08 08:19:53;;;;;;;5.77;3.93;;;26.50;55.10;;;;;;5077272;28;20176;-45
2022/10/08 08:22:19;;;;;;;7.53;4.00;;;27.00;53.80;;;;;;5096821;28;20530;-44
2022/10/08 08:24:48;;;;;;;4.20;3.80;;;26.80;53.20;;;;;;5096655;28;20431;-46
2022/10/08 08:27:13;;;;;;;6.37;3.80;;;26.60;53.60;;;;;;5097936;28;20223;-46
2022/10/08 08:29:40;;;;;;;4.80;3.73;;;27.00;52.30;;;;;;5097625;28;20456;-45
2022/10/08 08:32:05;;;;;;;5.37;3.30;;;27.70;51.80;;;;;;5096407;28;20176;-45
2022/10/08 08:34:31;;;;;;;3.93;3.30;;;28.70;50.60;;;;;;5096945;28;20422;-48
2022/10/08 08:36:58;;;;;;;5.63;4.00;;;29.20;49.00;;;;;;5096960;28;20310;-44
2022/10/08 08:39:25;;;;;;;4.20;3.07;;;29.10;48.20;;;;;;5097611;28;20193;-47
2022/10/08 08:42:26;;;;;;;5.50;3.30;;;28.60;48.40;;;;;;5096758;28;20411;-46
2022/10/08 08:44:57;;;;;;;5.57;3.20;;;28.50;48.50;;;;;;5096825;28;20427;-46
2022/10/08 08:47:35;;;;;;;7.40;3.67;;;28.10;48.20;;;;;;5095813;28;20411;-46
2022/10/08 08:50:26;;;;;;;4.13;2.93;;;28.20;48.10;;;;;;5095329;28;20497;-44
2022/10/08 08:52:52;;;;;;;7.00;3.40;;;29.70;47.00;;;;;;5095499;28;20468;-45
2022/10/08 08:55:21;;;;;;;3.80;2.80;;;30.30;45.40;;;;;;5095772;28;20437;-45
2022/10/08 08:57:47;;;;;;;6.67;4.37;;;30.20;44.80;;;;;;5093243;28;20254;-46
2022/10/08 09:00:16;;;;;;;5.17;3.30;;;30.30;44.50;;;;;;5093913;28;20403;-46
2022/10/08 09:02:55;;;;;;;5.90;3.10;;;30.10;44.10;;;;;;5092856;28;20181;-47
2022/10/08 09:05:21;;;;;;;3.73;3.13;;;29.90;44.30;;;;;;5093802;28;20430;-44
2022/10/08 09:08:18;;;;;;;7.63;3.40;;;30.40;43.90;;;;;;5092560;28;20424;-45
2022/10/08 09:11:01;;;;;;;5.20;3.40;;;31.40;43.10;;;;;;5074914;28;20412;-46
2022/10/08 09:13:40;;;;;;;5.80;3.50;;;33.10;41.50;;;;;;5094689;28;20443;-48
2022/10/08 09:16:10;;;;;;;5.10;2.90;;;34.70;39.10;;;;;;5093054;28;20444;-44
2022/10/08 09:18:36;;;;;;;4.20;3.10;;;35.90;37.50;;;;;;5090284;28;20400;-46
2022/10/08 09:21:02;;;;;;;6.50;3.10;;;36.80;36.20;;;;;;5093074;28;20442;-45
2022/10/08 09:23:28;;;;;;;7.70;3.03;;;37.60;34.40;;;;;;5092407;28;20477;-43
2022/10/08 09:26:03;;;;;;;3.50;2.70;;;38.20;33.80;;;;;;5093603;28;20179;-44
2022/10/08 09:29:04;;;;;;;5.33;2.87;;;38.80;32.80;;;;;;5092240;28;20158;-46
2022/10/08 09:31:39;;;;;;;4.10;2.90;;;38.70;31.70;;;;;;5054905;28;20886;-45
2022/10/08 09:34:18;;;;;;;4.00;2.50;;;38.40;31.90;;;;;;5091539;28;20515;-49
2022/10/08 09:36:45;;;;;;;5.47;2.67;;;37.90;31.90;;;;;;5095211;28;20481;-47
2022/10/08 09:39:34;;;;;;;3.03;2.70;;;37.20;32.20;;;;;;5095655;28;20807;-45
2022/10/08 09:42:06;;;;;;;2.60;2.20;;;36.30;32.60;;;;;;5095726;28;20796;-46
2022/10/08 09:44:57;;;;;;;5.63;3.30;;;35.40;33.40;;;;;;5095552;28;20433;-46
2022/10/08 09:47:25;;;;;;;7.43;3.20;;;34.70;33.50;;;;;;5094397;28;20643;-44
2022/10/08 09:50:26;;;;;;;4.17;2.43;;;34.00;33.60;;;;;;5094965;28;20526;-45
2022/10/08 09:52:54;;;;;;;7.40;3.40;;;33.20;34.10;;;;;;5056013;28;20441;-43
2022/10/08 09:55:21;;;;;;;4.73;2.90;;;32.70;34.60;;;;;;5087585;28;20409;-46
2022/10/08 09:57:54;;;;;;;6.40;3.27;;;32.20;35.10;;;;;;5095929;28;20444;-48
2022/10/08 10:00:27;;;;;;;4.20;2.80;;;32.30;35.40;;;;;;5094836;28;20400;-48
2022/10/08 10:02:55;;;;;;;4.23;2.80;;;32.80;36.90;;;;;;5093484;28;20422;-45
2022/10/08 10:05:26;;;;;;;4.53;3.07;;;33.70;37.00;;;;;;5092971;28;20453;-46
2022/10/08 10:07:53;;;;;;;3.70;2.73;;;34.80;36.10;;;;;;5093687;28;20423;-47
2022/10/08 10:10:38;;;;;;;4.40;2.80;;;35.90;34.60;;;;;;5094882;28;20833;-45
2022/10/08 10:13:31;;;;;;;4.80;2.90;;;37.30;33.40;;;;;;5094414;28;20464;-45
2022/10/08 10:16:12;;;;;;;5.20;2.93;;;38.20;32.60;;;;;;5094001;28;20578;-46
2022/10/08 10:18:57;;;;;;;3.83;2.80;;;38.20;31.90;;;;;;5094950;28;20470;-44
2022/10/08 10:21:34;;;;;;;5.50;3.03;;;37.90;32.20;;;;;;5094225;28;20750;-45
2022/10/08 10:24:23;;;;;;;5.30;3.30;;;38.00;32.10;;;;;;5093045;28;20414;-45
2022/10/08 10:26:50;;;;;;;7.50;2.90;;;38.70;31.70;;;;;;5092158;28;20908;-45
2022/10/08 10:29:20;;;;;;;5.93;3.20;;;39.20;31.50;;;;;;5092360;28;20487;-48
2022/10/08 10:31:54;;;;;;;4.47;3.13;;;38.70;31.30;;;;;;5071382;28;20489;-46
2022/10/08 10:34:24;;;;;;;4.27;2.80;;;37.90;31.60;;;;;;5077579;28;20425;-44
2022/10/08 10:36:54;;;;;;;4.57;3.00;;;37.90;31.60;;;;;;5087370;28;20521;-44
2022/10/08 10:39:37;;;;;;;6.20;2.47;;;38.10;31.10;;;;;;5097413;28;20422;-47
2022/10/08 10:42:20;;;;;;;4.83;2.50;;;39.20;30.80;;;;;;5098594;28;20446;-45
2022/10/08 10:44:53;;;;;;;13.63;3.40;;;40.70;30.10;;;;;;5098110;28;20426;-46
2022/10/08 10:47:23;;;;;;;5.00;3.07;;;41.90;29.10;;;;;;5097455;28;20510;-45
2022/10/08 10:49:50;;;;;;;5.77;2.40;;;43.30;28.70;;;;;;5097938;28;20411;-46
2022/10/08 10:52:39;;;;;;;3.03;2.27;;;44.00;28.00;;;;;;5081555;28;20477;-46
2022/10/08 10:55:08;;;;;;;5.17;2.80;;;44.40;27.70;;;;;;5099079;28;20507;-47
2022/10/08 10:57:58;;;;;;;4.27;2.40;;;44.30;27.40;;;;;;5098210;28;20501;-48
2022/10/08 11:01:02;;;;;;;4.90;2.57;;;44.00;27.30;;;;;;5098719;28;20429;-48
2022/10/08 11:03:39;;;;;;;4.33;2.70;;;43.40;27.50;;;;;;5097732;28;20431;-45
2022/10/08 11:06:44;;;;;;;5.60;2.40;;;43.90;27.50;;;;;;5099538;28;20423;-49
2022/10/08 11:09:15;;;;;;;6.00;2.77;;;44.50;27.20;;;;;;5094604;28;20525;-47
2022/10/08 11:11:47;;;;;;;4.17;2.50;;;44.00;27.10;;;;;;5095588;28;20825;-45
2022/10/08 11:15:00;;;;;;;5.77;2.40;;;43.10;27.10;;;;;;5093630;28;20465;-45
2022/10/08 11:17:41;;;;;;;3.40;2.40;;;43.30;27.30;;;;;;5073095;28;20776;-48
2022/10/08 11:20:36;;;;;;;4.30;2.83;;;43.90;26.90;;;;;;5074861;28;20870;-44
2022/10/08 11:23:16;;;;;;;4.63;2.40;;;43.20;27.00;;;;;;5082838;28;20495;-46
2022/10/08 11:25:55;;;;;;;3.50;2.60;;;41.50;27.10;;;;;;5096787;28;20495;-49
2022/10/08 11:28:26;;;;;;;4.40;2.40;;;40.70;27.50;;;;;;5097132;28;20754;-50
2022/10/08 11:31:14;;;;;;;4.30;3.13;;;40.80;27.40;;;;;;5093150;28;20426;-44
2022/10/08 11:33:40;;;;;;;5.93;2.47;;;39.60;28.10;;;;;;5094944;28;20740;-46
2022/10/08 11:36:38;;;;;;;4.13;2.27;;;39.50;28.60;;;;;;5094845;28;20443;-46
2022/10/08 11:39:14;;;;;;;4.00;2.33;;;40.70;28.60;;;;;;5084925;28;20531;-45
2022/10/08 11:42:08;;;;;;;4.27;2.40;;;41.90;27.80;;;;;;5095189;28;20649;-46
2022/10/08 11:44:36;;;;;;;2.70;2.23;;;43.00;27.20;;;;;;5094337;28;20437;-49
2022/10/08 11:47:46;;;;;;;3.53;2.47;;;44.00;26.80;;;;;;5094630;28;20431;-45
2022/10/08 11:50:22;;;;;;;4.70;2.00;;;44.70;26.20;;;;;;5096249;28;20413;-50
2022/10/08 11:52:48;;;;;;;6.03;2.33;;;45.20;26.20;;;;;;5096350;28;20512;-48
2022/10/08 11:55:28;;;;;;;3.77;1.97;;;45.00;26.10;;;;;;5095280;28;20436;-48
2022/10/08 11:57:59;;;;;;;4.53;2.60;;;44.70;26.10;;;;;;5095641;28;20282;-46
2022/10/08 12:00:40;;;;;;;4.40;2.37;;;44.50;25.80;;;;;;5095363;28;20428;-46
2022/10/08 12:03:30;;;;;;;4.17;2.40;;;44.30;26.60;;;;;;5094753;28;20422;-45
2022/10/08 12:05:59;;;;;;;2.90;1.90;;;43.80;26.20;;;;;;5083671;28;20749;-46
2022/10/08 12:08:51;;;;;;;3.37;2.23;;;43.10;26.00;;;;;;5091068;28;20408;-49
2022/10/08 12:11:36;;;;;;;3.07;1.90;;;41.50;26.50;;;;;;5089526;28;20501;-46
2022/10/08 12:14:13;;;;;;;9.33;2.57;;;39.60;27.20;;;;;;5091256;28;20494;-48
2022/10/08 12:16:47;;;;;;;3.73;2.80;;;38.00;28.20;;;;;;5091554;28;20410;-43
2022/10/08 12:19:34;;;;;;;4.03;2.53;;;36.80;28.70;;;;;;5094151;28;20414;-47
2022/10/08 12:22:23;;;;;;;3.20;2.47;;;36.10;29.20;;;;;;5091655;28;20431;-44
2022/10/08 12:24:52;;;;;;;5.90;2.23;;;37.10;29.40;;;;;;5095742;28;20511;-45
2022/10/08 12:27:36;;;;;;;2.90;1.80;;;39.20;28.80;;;;;;5095926;28;20526;-45
2022/10/08 12:30:02;;;;;;;3.63;2.67;;;41.00;27.90;;;;;;5074737;28;20430;-44
2022/10/08 12:32:49;;;;;;;2.60;2.23;;;42.50;27.10;;;;;;5074649;28;20960;-48
2022/10/08 12:35:33;;;;;;;4.40;2.13;;;42.20;26.70;;;;;;5075409;28;20188;-48
2022/10/08 12:38:12;;;;;;;3.50;2.43;;;42.10;26.90;;;;;;5074403;28;20423;-47
2022/10/08 12:40:58;;;;;;;3.73;2.13;;;42.70;26.50;;;;;;5074859;28;20411;-46
2022/10/08 12:43:33;;;;;;;4.53;2.40;;;42.00;26.50;;;;;;5072766;28;20462;-47
2022/10/08 12:46:16;;;;;;;5.07;2.63;;;40.20;26.90;;;;;;5073217;28;20486;-48
2022/10/08 12:49:08;;;;;;;4.30;2.10;;;38.40;27.80;;;;;;5074140;28;20471;-44
2022/10/08 12:51:43;;;;;;;5.40;2.60;;;38.30;28.30;;;;;;5064122;28;20451;-46
2022/10/08 12:54:23;;;;;;;4.40;2.47;;;39.10;28.40;;;;;;5075002;28;20460;-45
2022/10/08 12:56:49;;;;;;;4.27;2.27;;;40.80;27.80;;;;;;5073323;28;20851;-46
2022/10/08 12:59:17;;;;;;;4.60;2.47;;;41.80;26.90;;;;;;5057210;28;20458;-46
2022/10/08 13:01:43;;;;;;;4.80;2.47;;;42.60;26.40;;;;;;5071697;28;20442;-46
2022/10/08 13:04:23;;;;;;;3.90;2.57;;;43.30;26.20;;;;;;5072846;28;20411;-47
2022/10/08 13:06:52;;;;;;;4.50;2.37;;;44.00;25.80;;;;;;5075786;28;20422;-44
2022/10/08 13:09:35;;;;;;;2.60;2.10;;;43.90;25.70;;;;;;5074988;28;20851;-45